createdAt,value
2023-04-22T00:00:51.158Z,98213.31
2023-04-22T00:03:18.015Z,98206.66
2023-04-22T00:05:44.992Z,98208.53
2023-04-22T00:08:11.763Z,98207.88
2023-04-22T00:10:38.426Z,98209.69
2023-04-22T00:13:05.190Z,98204.75
2023-04-22T00:15:31.869Z,98206.66
2023-04-22T00:17:59.275Z,98208.38
2023-04-22T00:20:26.011Z,98204.31
2023-04-22T00:22:52.638Z,98212.94
2023-04-22T00:25:19.401Z,98216.53
2023-04-22T00:27:46.227Z,98210.75
2023-04-22T00:30:16.270Z,98206.63
2023-04-22T00:32:42.945Z,98209.22
2023-04-22T00:35:09.735Z,98218.91
2023-04-22T00:37:36.459Z,98215.50
2023-04-22T00:40:03.600Z,98216.50
2023-04-22T00:42:30.582Z,98218.38
2023-04-22T00:44:57.221Z,98209.16
2023-04-22T00:47:26.953Z,98215.28
2023-04-22T00:49:55.108Z,98210.22
2023-04-22T00:52:21.760Z,98209.50
2023-04-22T00:54:49.688Z,98211.34
2023-04-22T00:57:17.750Z,98212.44
2023-04-22T00:59:44.898Z,98209.88
2023-04-22T01:02:12.418Z,98214.38
2023-04-22T01:04:39.646Z,98213.66
2023-04-22T01:07:06.898Z,98208.53
2023-04-22T01:09:34.007Z,98218.09
2023-04-22T01:12:01.820Z,98217.34
2023-04-22T01:14:29.004Z,98224.31
2023-04-22T01:16:56.073Z,98225.38
2023-04-22T01:19:23.939Z,98218.41
2023-04-22T01:21:54.841Z,98234.16
2023-04-22T01:24:22.334Z,98228.22
2023-04-22T01:26:49.427Z,98225.38
2023-04-22T01:29:16.161Z,98239.44
2023-04-22T01:31:45.514Z,98232.66
2023-04-22T01:34:12.263Z,98223.81
2023-04-22T01:36:38.889Z,98235.94
2023-04-22T01:39:06.992Z,98231.91
2023-04-22T01:41:34.477Z,98220.84
2023-04-22T01:44:03.834Z,98229.56
2023-04-22T01:46:30.543Z,98234.84
2023-04-22T01:48:57.365Z,98225.44
2023-04-22T01:51:26.903Z,98225.28
2023-04-22T01:53:53.776Z,98234.91
2023-04-22T01:56:20.416Z,98227.63
2023-04-22T01:58:47.133Z,98226.50
2023-04-22T02:01:13.841Z,98231.97
2023-04-22T02:03:40.530Z,98232.97
2023-04-22T02:06:07.795Z,98227.22
2023-04-22T02:08:34.447Z,98227.25
2023-04-22T02:11:03.310Z,98230.88
2023-04-22T02:13:36.941Z,98221.41
2023-04-22T02:16:03.847Z,98231.69
2023-04-22T02:18:30.803Z,98227.53
2023-04-22T02:20:57.682Z,98224.94
2023-04-22T02:23:25.098Z,98225.03
2023-04-22T02:25:52.843Z,98229.53
2023-04-22T02:28:19.643Z,98233.06
2023-04-22T02:30:46.842Z,98226.19
2023-04-22T02:33:13.739Z,98224.53
2023-04-22T02:35:40.307Z,98228.16
2023-04-22T02:38:06.951Z,98221.44
2023-04-22T02:40:33.661Z,98219.72
2023-04-22T02:43:00.499Z,98221.44
2023-04-22T02:45:30.304Z,98220.63
2023-04-22T02:47:57.106Z,98222.47
2023-04-22T02:50:23.793Z,98219.09
2023-04-22T02:52:51.427Z,98218.25
2023-04-22T02:55:18.309Z,98220.03
2023-04-22T02:57:44.920Z,98218.47
2023-04-22T03:00:11.735Z,98217.66
2023-04-22T03:02:39.096Z,98216.84
2023-04-22T03:05:06.226Z,98220.41
2023-04-22T03:07:32.892Z,98215.19
2023-04-22T03:09:59.515Z,98214.31
2023-04-22T03:12:26.256Z,98210.19
2023-04-22T03:14:52.901Z,98211.28
2023-04-22T03:17:19.790Z,98213.88
2023-04-22T03:19:47.113Z,98215.63
2023-04-22T03:22:13.721Z,98210.53
2023-04-22T03:24:40.634Z,98213.25
2023-04-22T03:27:07.331Z,98227.13
2023-04-22T03:29:34.517Z,98228.13
2023-04-22T03:32:01.213Z,98227.38
2023-04-22T03:34:27.950Z,98227.38
2023-04-22T03:36:54.589Z,98228.34
2023-04-22T03:39:21.424Z,98232.72
2023-04-22T03:41:48.066Z,98231.91
2023-04-22T03:44:14.741Z,98229.47
2023-04-22T03:46:41.455Z,98233.69
2023-04-22T03:49:08.638Z,98232.16
2023-04-22T03:51:35.228Z,98240.84
2023-04-22T03:54:04.908Z,98239.16
2023-04-22T03:56:31.546Z,98236.59
2023-04-22T03:58:58.132Z,98243.41
2023-04-22T04:01:24.861Z,98245.19
2023-04-22T04:03:52.097Z,98237.50
2023-04-22T04:06:18.962Z,98247.91
2023-04-22T04:08:46.197Z,98251.19
2023-04-22T04:11:12.944Z,98248.75
2023-04-22T04:13:39.627Z,98253.16
2023-04-22T04:16:07.142Z,98253.19
2023-04-22T04:18:33.772Z,98253.28
2023-04-22T04:21:00.384Z,98260.13
2023-04-22T04:23:27.277Z,98252.97
2023-04-22T04:25:55.638Z,98264.31
2023-04-22T04:28:25.603Z,98259.88
2023-04-22T04:30:53.871Z,98260.66
2023-04-22T04:33:23.181Z,98258.78
2023-04-22T04:35:49.904Z,98259.81
2023-04-22T04:38:16.699Z,98256.50
2023-04-22T04:40:43.698Z,98269.47
2023-04-22T04:43:10.343Z,98266.09
2023-04-22T04:45:37.021Z,98266.81
2023-04-22T04:48:03.871Z,98261.59
2023-04-22T04:50:30.555Z,98265.00
2023-04-22T04:52:59.550Z,98269.25
2023-04-22T04:55:26.189Z,98266.72
2023-04-22T04:57:52.804Z,98272.81
2023-04-22T05:00:19.626Z,98270.16
2023-04-22T05:02:46.483Z,98271.81
2023-04-22T05:05:13.236Z,98276.94
2023-04-22T05:07:39.864Z,98275.22
2023-04-22T05:10:07.092Z,98263.88
2023-04-22T05:12:33.852Z,98271.41
2023-04-22T05:15:03.694Z,98267.06
2023-04-22T05:17:30.869Z,98262.06
2023-04-22T05:19:57.573Z,98265.31
2023-04-22T05:22:24.397Z,98265.16
2023-04-22T05:24:51.069Z,98263.44
2023-04-22T05:27:18.173Z,98272.91
2023-04-22T05:29:44.875Z,98268.44
2023-04-22T05:32:11.637Z,98265.72
2023-04-22T05:34:38.452Z,98265.53
2023-04-22T05:37:05.869Z,98263.00
2023-04-22T05:39:32.545Z,98265.44
2023-04-22T05:41:59.434Z,98265.31
2023-04-22T05:44:26.056Z,98262.41
2023-04-22T05:46:52.656Z,98267.22
2023-04-22T05:49:19.221Z,98266.84
2023-04-22T05:51:46.348Z,98269.94
2023-04-22T05:54:13.064Z,98273.75
2023-04-22T05:56:39.714Z,98274.13
2023-04-22T05:59:06.388Z,98266.81
2023-04-22T06:01:33.008Z,98276.78
2023-04-22T06:03:59.937Z,98276.88
2023-04-22T06:06:27.638Z,98279.00
2023-04-22T06:08:54.357Z,98277.63
2023-04-22T06:11:21.094Z,98281.28
2023-04-22T06:13:47.810Z,98283.97
2023-04-22T06:16:14.495Z,98279.75
2023-04-22T06:18:43.472Z,98272.09
2023-04-22T06:21:10.174Z,98276.47
2023-04-22T06:23:36.875Z,98271.38
2023-04-22T06:26:04.309Z,98273.75
2023-04-22T06:28:30.939Z,98276.41
2023-04-22T06:30:57.584Z,98268.31
2023-04-22T06:33:24.216Z,98268.28
2023-04-22T06:35:51.255Z,98268.88
2023-04-22T06:38:17.877Z,98274.09
2023-04-22T06:40:44.557Z,98271.69
2023-04-22T06:43:11.184Z,98273.72
2023-04-22T06:45:37.934Z,98278.50
2023-04-22T06:48:04.627Z,98271.19
2023-04-22T06:50:31.503Z,98272.56
2023-04-22T06:52:58.234Z,98273.31
2023-04-22T06:55:24.929Z,98273.28
2023-04-22T06:57:51.783Z,98273.00
2023-04-22T07:00:18.646Z,98267.63
2023-04-22T07:02:45.370Z,98272.25
2023-04-22T07:05:13.199Z,98267.13
2023-04-22T07:07:39.877Z,98269.53
2023-04-22T07:10:06.796Z,98266.88
2023-04-22T07:12:33.498Z,98269.16
2023-04-22T07:15:02.687Z,98259.69
2023-04-22T07:17:29.353Z,98261.41
2023-04-22T07:19:56.148Z,98265.72
2023-04-22T07:22:22.825Z,98267.22
2023-04-22T07:24:49.453Z,98267.22
2023-04-22T07:27:16.450Z,98265.47
2023-04-22T07:29:43.327Z,98272.34
2023-04-22T07:32:10.245Z,98273.28
2023-04-22T07:34:36.979Z,98264.97
2023-04-22T07:37:03.792Z,98263.34
2023-04-22T07:39:30.505Z,98259.66
2023-04-22T07:41:57.193Z,98264.09
2023-04-22T07:44:23.819Z,98276.66
2023-04-22T07:46:50.873Z,98262.56
2023-04-22T07:49:17.821Z,98262.06
2023-04-22T07:51:44.922Z,98265.25
2023-04-22T07:54:11.647Z,98262.75
2023-04-22T07:56:41.270Z,98264.63
2023-04-22T07:59:08.275Z,98261.91
2023-04-22T08:01:34.891Z,98262.03
2023-04-22T08:04:04.478Z,98263.09
2023-04-22T08:06:32.038Z,98261.72
2023-04-22T08:08:58.725Z,98268.00
2023-04-22T08:11:25.577Z,98260.88
2023-04-22T08:13:52.219Z,98257.09
2023-04-22T08:16:19.500Z,98259.53
2023-04-22T08:18:46.312Z,98262.16
2023-04-22T08:21:12.957Z,98264.66
2023-04-22T08:23:39.621Z,98266.56
2023-04-22T08:26:08.340Z,98266.34
2023-04-22T08:28:35.540Z,98262.31
2023-04-22T08:31:02.225Z,98260.19
2023-04-22T08:33:28.967Z,98261.56
2023-04-22T08:35:55.747Z,98259.69
2023-04-22T08:38:22.437Z,98254.44
2023-04-22T08:40:49.165Z,98258.38
2023-04-22T08:43:16.137Z,98251.97
2023-04-22T08:45:43.017Z,98248.41
2023-04-22T08:48:11.725Z,98249.88
2023-04-22T08:50:39.811Z,98256.34
2023-04-22T08:53:06.620Z,98258.75
2023-04-22T08:55:35.776Z,98256.63
2023-04-22T08:58:07.273Z,98249.63
2023-04-22T09:00:34.816Z,98258.19
2023-04-22T09:03:03.415Z,98251.03
2023-04-22T09:05:33.999Z,98254.41
2023-04-22T09:08:01.227Z,98250.81
2023-04-22T09:10:34.109Z,98246.19
2023-04-22T09:13:03.458Z,98252.91
2023-04-22T09:15:30.252Z,98252.66
2023-04-22T09:17:58.645Z,98249.19
2023-04-22T09:20:29.742Z,98253.28
2023-04-22T09:22:58.164Z,98248.25
2023-04-22T09:25:27.187Z,98248.03
2023-04-22T09:27:56.456Z,98246.25
2023-04-22T09:30:33.382Z,98242.34
2023-04-22T09:33:01.652Z,98244.63
2023-04-22T09:35:36.705Z,98240.09
2023-04-22T09:38:06.442Z,98246.69
2023-04-22T09:40:33.078Z,98231.78
2023-04-22T09:43:06.188Z,98239.66
2023-04-22T09:45:35.273Z,98231.78
2023-04-22T09:48:13.127Z,98230.47
2023-04-22T09:50:43.603Z,98223.09
2023-04-22T09:53:12.612Z,98224.91
2023-04-22T09:55:43.008Z,98233.72
2023-04-22T09:58:11.957Z,98227.41
2023-04-22T10:00:47.910Z,98222.03
2023-04-22T10:03:15.573Z,98223.72
2023-04-22T10:05:44.808Z,98221.09
2023-04-22T10:08:13.060Z,98213.56
2023-04-22T10:10:40.673Z,98209.03
2023-04-22T10:13:08.005Z,98208.44
2023-04-22T10:15:42.513Z,98212.59
2023-04-22T10:18:10.983Z,98210.31
2023-04-22T10:20:40.212Z,98206.28
2023-04-22T10:23:13.484Z,98205.94
2023-04-22T10:25:41.083Z,98201.41
2023-04-22T10:28:10.729Z,98202.22
2023-04-22T10:30:39.317Z,98197.47
2023-04-22T10:33:21.208Z,98203.19
2023-04-22T10:36:08.614Z,98198.06
2023-04-22T10:38:39.747Z,98182.91
2023-04-22T10:41:06.828Z,98189.59
2023-04-22T10:43:55.695Z,98193.53
2023-04-22T10:46:38.168Z,98187.31
2023-04-22T10:49:23.406Z,98186.97
2023-04-22T10:51:58.544Z,98185.53
2023-04-22T10:54:36.480Z,98184.13
2023-04-22T10:57:20.521Z,98188.41
2023-04-22T10:59:54.429Z,98174.81
2023-04-22T11:02:22.871Z,98170.16
2023-04-22T11:04:52.315Z,98180.19
2023-04-22T11:07:20.871Z,98173.13
2023-04-22T11:09:50.880Z,98171.22
2023-04-22T11:12:35.869Z,98168.38
2023-04-22T11:15:05.731Z,98160.34
2023-04-22T11:17:33.033Z,98165.97
2023-04-22T11:20:00.617Z,98167.41
2023-04-22T11:22:27.742Z,98161.91
2023-04-22T11:24:58.959Z,98167.16
2023-04-22T11:27:26.804Z,98163.84
2023-04-22T11:30:08.216Z,98164.69
2023-04-22T11:32:38.785Z,98165.88
2023-04-22T11:35:10.939Z,98161.22
2023-04-22T11:37:43.749Z,98164.09
2023-04-22T11:42:41.738Z,98164.09
2023-04-22T11:45:09.014Z,98163.84
2023-04-22T11:47:36.345Z,98155.81
2023-04-22T11:50:07.250Z,98151.16
2023-04-22T11:52:44.569Z,98152.81
2023-04-22T11:55:20.394Z,98148.53
2023-04-22T11:57:59.041Z,98151.63
2023-04-22T12:00:34.072Z,98152.34
2023-04-22T12:03:03.670Z,98155.66
2023-04-22T12:05:53.750Z,98148.50
2023-04-22T12:08:23.333Z,98146.84
2023-04-22T12:10:52.136Z,98148.63
2023-04-22T12:13:24.187Z,98156.63
2023-04-22T12:15:56.423Z,98148.88
2023-04-22T12:18:37.086Z,98144.81
2023-04-22T12:21:14.406Z,98144.94
2023-04-22T12:23:44.231Z,98143.38
2023-04-22T12:26:11.607Z,98140.59
2023-04-22T12:28:38.870Z,98137.16
2023-04-22T12:31:06.186Z,98132.84
2023-04-22T12:33:33.318Z,98133.56
2023-04-22T12:36:00.040Z,98130.81
2023-04-22T12:38:26.975Z,98122.94
2023-04-22T12:40:54.398Z,98126.16
2023-04-22T12:43:21.001Z,98123.38
2023-04-22T12:45:47.716Z,98115.25
2023-04-22T12:48:14.425Z,98126.47
2023-04-22T12:50:41.171Z,98115.25
2023-04-22T12:53:10.785Z,98117.28
2023-04-22T12:55:37.428Z,98109.28
2023-04-22T12:58:04.342Z,98110.38
2023-04-22T13:00:31.163Z,98106.78
2023-04-22T13:02:58.031Z,98103.19
2023-04-22T13:05:25.554Z,98106.66
2023-04-22T13:08:05.740Z,98104.00
2023-04-22T13:10:34.004Z,98098.75
2023-04-22T13:13:16.153Z,98091.00
2023-04-22T13:15:44.170Z,98088.56
2023-04-22T13:18:10.832Z,98080.81
2023-04-22T13:20:37.525Z,98083.91
2023-04-22T13:23:04.910Z,98077.56
2023-04-22T13:25:31.832Z,98078.41
2023-04-22T13:27:58.568Z,98076.91
2023-04-22T13:30:25.213Z,98079.53
2023-04-22T13:32:52.092Z,98074.28
2023-04-22T13:35:18.901Z,98073.22
2023-04-22T13:37:46.472Z,98070.47
2023-04-22T13:40:13.308Z,98063.75
2023-04-22T13:42:39.960Z,98071.91
2023-04-22T13:45:07.613Z,98067.25
2023-04-22T13:47:36.808Z,98069.88
2023-04-22T13:50:05.408Z,98058.25
2023-04-22T13:52:32.100Z,98063.28
2023-04-22T13:54:58.773Z,98079.75
2023-04-22T13:57:26.098Z,98078.09
2023-04-22T13:59:52.872Z,98078.09
2023-04-22T14:02:19.560Z,98074.03
2023-04-22T14:04:48.936Z,98068.66
2023-04-22T14:07:19.372Z,98068.78
2023-04-22T14:09:46.246Z,98065.47
2023-04-22T14:12:13.047Z,98068.22
2023-04-22T14:14:39.671Z,98072.38
2023-04-22T14:17:06.947Z,98067.38
2023-04-22T14:19:33.781Z,98065.25
2023-04-22T14:22:00.552Z,98065.13
2023-04-22T14:24:27.177Z,98069.41
2023-04-22T14:26:54.316Z,98061.66
2023-04-22T14:29:20.988Z,98063.44
2023-04-22T14:31:49.909Z,98067.63
2023-04-22T14:34:17.098Z,98055.81
2023-04-22T14:36:45.955Z,98069.53
2023-04-22T14:39:12.604Z,98055.44
2023-04-22T14:41:39.312Z,98051.41
2023-04-22T14:44:06.211Z,98051.41
2023-04-22T14:46:32.909Z,98051.28
2023-04-22T14:48:59.587Z,98047.78
2023-04-22T14:51:29.001Z,98054.16
2023-04-22T14:53:56.104Z,98045.56
2023-04-22T14:56:23.112Z,98052.47
2023-04-22T14:58:49.889Z,98052.59
2023-04-22T15:01:16.903Z,98050.94
2023-04-22T15:03:44.265Z,98058.13
2023-04-22T15:06:13.488Z,98053.97
2023-04-22T15:08:40.189Z,98056.69
2023-04-22T15:11:06.978Z,98049.91
2023-04-22T15:13:33.557Z,98049.31
2023-04-22T15:16:00.267Z,98048.34
2023-04-22T15:18:26.956Z,98040.72
2023-04-22T15:20:53.514Z,98038.81
2023-04-22T15:23:20.156Z,98042.28
2023-04-22T15:25:46.911Z,98040.22
2023-04-22T15:28:14.124Z,98039.25
2023-04-22T15:30:41.092Z,98047.53
2023-04-22T15:33:07.744Z,98044.06
2023-04-22T15:35:34.428Z,98049.44
2023-04-22T15:38:02.996Z,98041.09
2023-04-22T15:40:29.654Z,98041.94
2023-04-22T15:42:56.258Z,98034.06
2023-04-22T15:45:22.941Z,98041.22
2023-04-22T15:47:52.402Z,98042.28
2023-04-22T15:50:20.168Z,98034.53
2023-04-22T15:52:46.806Z,98039.66
2023-04-22T15:55:13.534Z,98038.13
2023-04-22T15:57:40.107Z,98044.59
2023-04-22T16:00:12.461Z,98037.81
2023-04-22T16:02:40.883Z,98033.63
2023-04-22T16:05:08.063Z,98034.84
2023-04-22T16:07:35.129Z,98035.09
2023-04-22T16:10:02.240Z,98031.97
2023-04-22T16:12:28.976Z,98044.19
2023-04-22T16:14:55.624Z,98033.19
2023-04-22T16:17:22.464Z,98041.19
2023-04-22T16:19:49.369Z,98037.97
2023-04-22T16:22:18.467Z,98031.53
2023-04-22T16:24:48.046Z,98029.16
2023-04-22T16:27:17.147Z,98029.53
2023-04-22T16:29:44.127Z,98023.94
2023-04-22T16:32:11.494Z,98022.97
2023-04-22T16:34:38.599Z,98024.91
2023-04-22T16:37:06.094Z,98026.09
2023-04-22T16:39:33.031Z,98025.13
2023-04-22T16:41:59.801Z,98023.59
2023-04-22T16:44:26.474Z,98030.16
2023-04-22T16:46:55.277Z,98031.56
2023-04-22T16:49:21.887Z,98026.09
2023-04-22T16:51:50.219Z,98023.59
2023-04-22T16:54:17.911Z,98022.88
2023-04-22T16:56:44.559Z,98016.22
2023-04-22T16:59:11.246Z,98023.38
2023-04-22T17:01:37.943Z,98022.78
2023-04-22T17:04:04.714Z,98018.00
2023-04-22T17:06:32.510Z,98022.78
2023-04-22T17:08:59.989Z,98024.03
2023-04-22T17:11:26.615Z,98021.06
2023-04-22T17:13:53.372Z,98026.66
2023-04-22T17:16:22.555Z,98021.06
2023-04-22T17:18:51.936Z,98021.28
2023-04-22T17:21:18.760Z,98028.91
2023-04-22T17:23:45.486Z,98026.38
2023-04-22T17:26:12.108Z,98018.88
2023-04-22T17:28:38.809Z,98021.25
2023-04-22T17:31:05.633Z,98022.31
2023-04-22T17:33:32.367Z,98018.13
2023-04-22T17:35:59.098Z,98025.50
2023-04-22T17:38:25.723Z,98020.25
2023-04-22T17:40:52.438Z,98025.75
2023-04-22T17:43:19.036Z,98019.50
2023-04-22T17:45:48.155Z,98026.75
2023-04-22T17:48:17.397Z,98027.97
2023-04-22T17:50:44.351Z,98027.56
2023-04-22T17:53:11.573Z,98029.69
2023-04-22T17:55:38.954Z,98023.94
2023-04-22T17:58:06.046Z,98029.81
2023-04-22T18:00:34.825Z,98042.75
2023-04-22T18:03:01.882Z,98051.16
2023-04-22T18:05:28.717Z,98043.63
2023-04-22T18:08:01.739Z,98048.34
2023-04-22T18:10:30.163Z,98048.19
2023-04-22T18:12:56.828Z,98056.69
2023-04-22T18:15:23.659Z,98056.28
2023-04-22T18:17:51.142Z,98055.03
2023-04-22T18:20:19.732Z,98058.91
2023-04-22T18:22:48.251Z,98056.94
2023-04-22T18:25:15.202Z,98056.41
2023-04-22T18:27:41.999Z,98062.03
2023-04-22T18:30:08.965Z,98058.28
2023-04-22T18:32:36.826Z,98067.81
2023-04-22T18:35:04.691Z,98070.53
2023-04-22T18:37:32.704Z,98064.56
2023-04-22T18:39:59.300Z,98069.25
2023-04-22T18:42:25.933Z,98063.81
2023-04-22T18:44:52.667Z,98056.47
2023-04-22T18:47:19.354Z,98060.34
2023-04-22T18:49:46.039Z,98060.66
2023-04-22T18:52:12.744Z,98060.84
2023-04-22T18:54:39.729Z,98066.19
2023-04-22T18:57:06.704Z,98063.16
2023-04-22T18:59:33.375Z,98059.16
2023-04-22T19:02:00.445Z,98062.63
2023-04-22T19:04:27.533Z,98064.50
2023-04-22T19:06:57.015Z,98066.34
2023-04-22T19:09:24.002Z,98068.25
2023-04-22T19:11:50.765Z,98069.19
2023-04-22T19:14:17.488Z,98063.41
2023-04-22T19:16:44.348Z,98064.47
2023-04-22T19:19:12.143Z,98064.75
2023-04-22T19:21:39.426Z,98065.16
2023-04-22T19:24:06.765Z,98068.91
2023-04-22T19:26:34.143Z,98068.38
2023-04-22T19:29:01.122Z,98067.72
2023-04-22T19:31:28.936Z,98062.94
2023-04-22T19:33:55.974Z,98068.38
2023-04-22T19:36:22.681Z,98064.47
2023-04-22T19:38:49.410Z,98061.16
2023-04-22T19:41:18.891Z,98063.31
2023-04-22T19:43:49.554Z,98061.91
2023-04-22T19:46:16.177Z,98062.81
2023-04-22T19:48:42.963Z,98059.66
2023-04-22T19:51:11.221Z,98069.59
2023-04-22T19:53:39.988Z,98060.34
2023-04-22T19:56:07.180Z,98058.97
2023-04-22T19:58:33.968Z,98059.25
2023-04-22T20:01:00.805Z,98054.53
2023-04-22T20:03:28.127Z,98059.00
2023-04-22T20:05:55.592Z,98051.16
2023-04-22T20:08:27.266Z,98060.94
2023-04-22T20:10:55.003Z,98054.31
2023-04-22T20:13:22.730Z,98060.56
2023-04-22T20:15:49.638Z,98056.47
2023-04-22T20:18:16.568Z,98055.81
2023-04-22T20:20:45.030Z,98061.97
2023-04-22T20:23:14.552Z,98056.19
2023-04-22T20:25:47.329Z,98056.28
2023-04-22T20:28:14.400Z,98059.91
2023-04-22T20:30:41.380Z,98058.25
2023-04-22T20:33:10.852Z,98059.34
2023-04-22T20:35:38.716Z,98060.56
2023-04-22T20:38:05.589Z,98058.03
2023-04-22T20:40:33.798Z,98058.47
2023-04-22T20:43:00.420Z,98051.00
2023-04-22T20:45:27.365Z,98052.03
2023-04-22T20:47:54.394Z,98051.28
2023-04-22T20:50:21.094Z,98057.59
2023-04-22T20:52:50.587Z,98048.28
2023-04-22T20:55:17.281Z,98051.91
2023-04-22T20:57:43.936Z,98049.41
2023-04-22T21:00:11.684Z,98054.03
2023-04-22T21:02:40.161Z,98049.81
2023-04-22T21:05:07.618Z,98050.00
2023-04-22T21:07:35.068Z,98056.16
2023-04-22T21:10:01.949Z,98051.22
2023-04-22T21:12:28.890Z,98056.69
2023-04-22T21:14:55.872Z,98055.09
2023-04-22T21:17:30.948Z,98055.44
2023-04-22T21:19:58.680Z,98048.66
2023-04-22T21:22:25.671Z,98051.63
2023-04-22T21:24:53.704Z,98057.81
2023-04-22T21:27:22.201Z,98055.31
2023-04-22T21:29:49.738Z,98057.41
2023-04-22T21:32:17.416Z,98057.59
2023-04-22T21:34:44.801Z,98056.00
2023-04-22T21:37:11.915Z,98055.31
2023-04-22T21:39:40.286Z,98060.63
2023-04-22T21:42:09.655Z,98062.31
2023-04-22T21:44:37.304Z,98064.81
2023-04-22T21:47:04.631Z,98063.22
2023-04-22T21:49:31.355Z,98064.25
2023-04-22T21:51:58.561Z,98065.19
2023-04-22T21:54:25.376Z,98057.78
2023-04-22T21:56:52.169Z,98068.47
2023-04-22T21:59:18.878Z,98068.72
2023-04-22T22:01:48.022Z,98066.47
2023-04-22T22:04:16.189Z,98063.56
2023-04-22T22:06:44.169Z,98072.25
2023-04-22T22:09:11.699Z,98069.00
2023-04-22T22:11:38.392Z,98067.41
2023-04-22T22:14:05.266Z,98065.94
2023-04-22T22:16:32.017Z,98078.13
2023-04-22T22:18:59.009Z,98079.13
2023-04-22T22:21:25.649Z,98070.91
2023-04-22T22:23:52.471Z,98074.72
2023-04-22T22:26:19.541Z,98073.91
2023-04-22T22:28:46.485Z,98083.81
2023-04-22T22:31:13.136Z,98081.41
2023-04-22T22:33:39.862Z,98075.41
2023-04-22T22:36:06.952Z,98083.41
2023-04-22T22:38:33.608Z,98085.41
2023-04-22T22:41:00.432Z,98082.97
2023-04-22T22:43:29.618Z,98081.56
2023-04-22T22:45:56.718Z,98085.22
2023-04-22T22:48:23.348Z,98084.44
2023-04-22T22:50:50.018Z,98087.22
2023-04-22T22:53:16.676Z,98081.47
2023-04-22T22:55:43.388Z,98089.50
2023-04-22T22:58:10.012Z,98086.16
2023-04-22T23:00:37.065Z,98084.75
2023-04-22T23:03:04.459Z,98084.84
2023-04-22T23:05:31.967Z,98083.09
2023-04-22T23:07:58.573Z,98086.75
2023-04-22T23:10:25.522Z,98078.25
2023-04-22T23:12:54.913Z,98082.56
2023-04-22T23:15:21.693Z,98077.06
2023-04-22T23:17:50.698Z,98081.34
2023-04-22T23:20:18.104Z,98073.69
2023-04-22T23:22:46.173Z,98077.59
2023-04-22T23:25:13.624Z,98074.31
2023-04-22T23:27:41.752Z,98072.91
2023-04-22T23:30:09.121Z,98074.72
2023-04-22T23:32:38.463Z,98071.91
2023-04-22T23:35:06.305Z,98068.75
2023-04-22T23:37:34.627Z,98078.59
2023-04-22T23:40:01.517Z,98080.72
2023-04-22T23:42:28.136Z,98076.28
2023-04-22T23:44:54.731Z,98083.44
2023-04-22T23:47:21.452Z,98083.72
2023-04-22T23:49:48.048Z,98075.25
2023-04-22T23:52:14.745Z,98072.88
2023-04-22T23:54:41.904Z,98071.31
2023-04-22T23:57:09.099Z,98067.97
2023-04-22T23:59:36.143Z,98067.28
